Time;durP1;ratioP1;P1;durP2;ratioP2;P2;SDS_P1;SDS_P2;PMS_P1;PMS_P2;Temp;Humidity;BMP_temperature;BMP_pressure;BME280_temperature;BME280_humidity;BME280_pressure;Samples;Min_cycle;Max_cycle;Signal;HPM_P1;HPM_P2
2023/04/10 00:02:10;;;;;;;;;;;;;;;27.48;38.83;94589.31;5012006;28;7279;-56
2023/04/10 00:04:36;;;;;;;;;;;;;;;27.48;39.04;94577.50;4981015;28;9220;-56
2023/04/10 00:07:22;;;;;;;;;;;;;;;27.44;39.34;94580.56;4997265;28;7232;-56
2023/04/10 00:09:52;;;;;;;;;;;;;;;27.47;39.32;94579.53;4987225;28;9517;-56
2023/04/10 00:12:44;;;;;;;;;;;;;;;27.48;39.47;94586.56;4987670;28;7259;-56
2023/04/10 00:15:14;;;;;;;;;;;;;;;27.47;39.29;94584.31;4990096;28;6862;-56
2023/04/10 00:18:16;;;;;;;;;;;;;;;27.45;39.10;94575.78;4997533;28;7046;-56
2023/04/10 00:20:49;;;;;;;;;;;;;;;27.44;39.32;94580.56;4987631;28;9423;-56
2023/04/10 00:23:26;;;;;;;;;;;;;;;27.44;39.12;94572.28;4978752;28;7450;-56
2023/04/10 00:26:33;;;;;;;;;;;;;;;27.45;39.27;94576.53;4995570;28;8736;-56
2023/04/10 00:29:15;;;;;;;;;;;;;;;27.45;38.62;94571.00;4997150;28;7436;-56
2023/04/10 00:32:03;;;;;;;;;;;;;;;27.44;39.44;94569.53;4994609;28;7212;-56
2023/04/10 00:34:57;;;;;;;;;;;;;;;27.45;39.33;94573.00;4978020;28;7040;-56
2023/04/10 00:37:44;;;;;;;;;;;;;;;27.44;39.34;94571.53;4986282;28;8625;-56
2023/04/10 00:40:11;;;;;;;;;;;;;;;27.40;38.99;94574.59;5006322;28;7067;-56
2023/04/10 00:43:18;;;;;;;;;;;;;;;27.42;39.32;94568.53;4993588;28;7236;-56
2023/04/10 00:46:04;;;;;;;;;;;;;;;27.41;39.21;94570.56;4996607;28;7146;-56
2023/04/10 00:48:36;;;;;;;;;;;;;;;27.40;39.28;94573.84;4992094;28;9087;-56
2023/04/10 00:51:19;;;;;;;;;;;;;;;27.39;39.34;94567.56;4984125;28;9032;-56
2023/04/10 00:53:50;;;;;;;;;;;;;;;27.39;39.29;94567.56;4978454;28;7201;-56
2023/04/10 00:56:17;;;;;;;;;;;;;;;27.39;39.41;94559.28;4987482;28;9582;-56
2023/04/10 00:58:54;;;;;;;;;;;;;;;27.39;39.18;94562.03;4986660;28;8438;-56
2023/04/10 01:01:30;;;;;;;;;;;;;;;27.38;39.60;94563.28;4995466;28;6918;-56
2023/04/10 01:04:34;;;;;;;;;;;;;;;27.38;39.41;94577.09;4995330;28;9336;-56
2023/04/10 01:07:40;;;;;;;;;;;;;;;27.37;38.96;94561.81;4957258;28;7254;-56
2023/04/10 01:10:12;;;;;;;;;;;;;;;27.39;39.74;94572.34;4950726;28;8240;-56
2023/04/10 01:12:54;;;;;;;;;;;;;;;27.36;39.64;94567.88;4974322;28;7039;-56
2023/04/10 01:15:56;;;;;;;;;;;;;;;27.37;39.15;94578.38;4964208;28;9181;-56
2023/04/10 01:18:35;;;;;;;;;;;;;;;27.37;39.07;94577.63;4950049;28;8919;-56
2023/04/10 01:21:14;;;;;;;;;;;;;;;27.35;39.53;94580.13;4956146;28;7282;-56
2023/04/10 01:24:20;;;;;;;;;;;;;;;27.36;39.36;94574.13;4952949;28;7273;-56
2023/04/10 01:27:24;;;;;;;;;;;;;;;27.34;39.52;94565.56;4965671;28;9147;-56
2023/04/10 01:30:29;;;;;;;;;;;;;;;27.33;39.49;94564.09;4966973;28;9056;-56
2023/04/10 01:33:19;;;;;;;;;;;;;;;27.29;39.19;94560.88;4934901;28;8902;-56
2023/04/10 01:36:06;;;;;;;;;;;;;;;27.29;39.16;94558.13;4928815;28;9038;-56
2023/04/10 01:38:38;;;;;;;;;;;;;;;27.29;39.40;94569.16;4940156;28;7400;-56
2023/04/10 01:41:07;;;;;;;;;;;;;;;27.29;39.32;94574.69;4957643;28;9078;-56
2023/04/10 01:44:04;;;;;;;;;;;;;;;27.28;39.28;94573.16;4957732;28;6973;-56
2023/04/10 01:46:32;;;;;;;;;;;;;;;27.27;39.19;94566.16;4937746;28;9336;-56
2023/04/10 01:49:17;;;;;;;;;;;;;;;27.26;39.38;94566.66;4958699;28;7223;-56
2023/04/10 01:51:59;;;;;;;;;;;;;;;27.27;39.31;94568.19;4952800;28;9046;-56
2023/04/10 01:54:28;;;;;;;;;;;;;;;27.26;39.04;94569.44;4958627;28;9551;-56
2023/04/10 01:56:56;;;;;;;;;;;;;;;27.26;39.57;94570.19;4969358;28;7093;-56
2023/04/10 01:59:32;;;;;;;;;;;;;;;27.25;39.50;94567.94;4953831;28;7263;-56
2023/04/10 02:02:00;;;;;;;;;;;;;;;27.25;39.42;94576.22;4972395;28;6982;-56
2023/04/10 02:04:50;;;;;;;;;;;;;;;27.22;39.18;94580.78;4966613;28;7201;-56
2023/04/10 02:07:35;;;;;;;;;;;;;;;27.21;39.71;94570.97;4980145;28;9443;-56
2023/04/10 02:10:47;;;;;;;;;;;;;;;27.22;39.22;94580.78;5003010;28;9476;-56
2023/04/10 02:13:19;;;;;;;;;;;;;;;27.22;39.46;94575.25;4997257;28;7108;-56
2023/04/10 02:16:01;;;;;;;;;;;;;;;27.20;39.13;94569.50;4994853;28;8687;-56
2023/04/10 02:18:49;;;;;;;;;;;;;;;27.19;39.59;94567.97;4990427;28;7267;-56
2023/04/10 02:21:42;;;;;;;;;;;;;;;27.19;39.48;94556.19;4989468;28;8711;-56
2023/04/10 02:24:36;;;;;;;;;;;;;;;27.18;39.11;94563.75;4985999;28;7277;-56
2023/04/10 02:27:13;;;;;;;;;;;;;;;27.16;38.98;94558.00;4993076;28;7602;-56
2023/04/10 02:29:59;;;;;;;;;;;;;;;27.16;39.32;94563.50;4997962;28;9050;-56
2023/04/10 02:32:41;;;;;;;;;;;;;;;27.19;39.38;94567.97;4992913;28;7107;-56
2023/04/10 02:35:08;;;;;;;;;;;;;;;27.19;39.39;94559.69;5012985;28;9012;-56
2023/04/10 02:37:35;;;;;;;;;;;;;;;27.19;39.24;94567.97;4996459;28;9001;-56
2023/04/10 02:40:22;;;;;;;;;;;;;;;27.19;39.42;94564.47;5009994;28;8279;-56
2023/04/10 02:42:50;;;;;;;;;;;;;;;27.20;39.51;94565.97;5006358;28;8945;-56
2023/04/10 02:46:01;;;;;;;;;;;;;;;27.20;39.38;94566.72;4997035;28;9258;-56
2023/04/10 02:48:31;;;;;;;;;;;;;;;27.16;39.64;94571.81;4934619;29;7300;-56
2023/04/10 02:51:06;;;;;;;;;;;;;;;27.17;39.51;94573.28;4935996;29;9312;-57
2023/04/10 02:53:45;;;;;;;;;;;;;;;27.15;39.60;94581.34;4957732;28;7248;-56
2023/04/10 02:56:11;;;;;;;;;;;;;;;27.15;39.88;94575.81;4921037;29;7245;-56
2023/04/10 02:58:56;;;;;;;;;;;;;;;27.16;39.43;94576.56;4925548;28;8708;-56
2023/04/10 03:01:27;;;;;;;;;;;;;;;27.15;39.54;94586.09;4928579;28;7030;-56
2023/04/10 03:04:12;;;;;;;;;;;;;;;27.13;39.07;94583.13;4906172;29;7270;-56
2023/04/10 03:06:45;;;;;;;;;;;;;;;27.11;38.99;94575.34;4935019;29;7052;-56
2023/04/10 03:09:36;;;;;;;;;;;;;;;27.14;39.02;94588.13;4932261;28;7265;-56
2023/04/10 03:12:36;;;;;;;;;;;;;;;27.15;39.02;94581.34;4917978;29;7282;-56
2023/04/10 03:15:03;;;;;;;;;;;;;;;27.14;39.36;94581.84;4864853;29;8153;-56
2023/04/10 03:17:39;;;;;;;;;;;;;;;27.14;39.85;94579.84;4879977;29;7293;-56
2023/04/10 03:20:15;;;;;;;;;;;;;;;27.15;39.77;94589.63;4880291;29;8805;-56
2023/04/10 03:22:41;;;;;;;;;;;;;;;27.14;39.53;94582.63;4880005;29;8618;-56
2023/04/10 03:25:16;;;;;;;;;;;;;;;27.11;39.67;94583.63;4880283;29;7060;-56
2023/04/10 03:27:42;;;;;;;;;;;;;;;27.12;39.46;94581.63;4898835;29;7183;-56
2023/04/10 03:30:35;;;;;;;;;;;;;;;27.13;39.37;94583.13;4911357;29;9206;-56
2023/04/10 03:33:17;;;;;;;;;;;;;;;27.12;39.26;94582.34;4917549;29;9006;-56
2023/04/10 03:36:03;;;;;;;;;;;;;;;27.12;39.38;94582.34;4914097;29;9409;-56
2023/04/10 03:38:41;;;;;;;;;;;;;;;27.11;39.08;94580.88;4926263;29;9036;-56
2023/04/10 03:41:41;;;;;;;;;;;;;;;27.11;39.36;94574.59;4893299;29;9270;-56
2023/04/10 03:44:09;;;;;;;;;;;;;;;27.09;39.68;94575.13;4909506;29;9296;-56
2023/04/10 03:46:54;;;;;;;;;;;;;;;27.08;39.42;94570.84;4899430;29;7052;-56
2023/04/10 03:49:22;;;;;;;;;;;;;;;27.07;39.37;94569.38;4910131;29;7245;-56
2023/04/10 03:51:53;;;;;;;;;;;;;;;27.07;39.49;94574.88;5006356;28;9394;-56
2023/04/10 03:54:19;;;;;;;;;;;;;;;27.07;39.55;94574.88;4983481;28;9468;-56
2023/04/10 03:56:47;;;;;;;;;;;;;;;27.07;39.46;94569.38;4993514;28;9044;-56
2023/04/10 03:59:13;;;;;;;;;;;;;;;27.05;39.13;94560.84;4995786;28;7619;-56
2023/04/10 04:01:39;;;;;;;;;;;;;;;27.09;39.37;94564.06;4981264;28;9472;-56
2023/04/10 04:04:05;;;;;;;;;;;;;;;27.08;39.38;94559.09;5009522;28;8185;-56
2023/04/10 04:06:31;;;;;;;;;;;;;;;27.07;39.08;94560.34;4992212;28;8375;-56
2023/04/10 04:08:59;;;;;;;;;;;;;;;27.07;39.07;94560.34;4997670;28;7286;-56
2023/04/10 04:11:26;;;;;;;;;;;;;;;27.04;39.62;94551.06;4984168;28;8775;-56
2023/04/10 04:13:52;;;;;;;;;;;;;;;27.05;39.32;94555.34;4982834;28;7047;-56
2023/04/10 04:16:18;;;;;;;;;;;;;;;27.03;39.36;94560.63;4982627;28;9061;-56
2023/04/10 04:18:46;;;;;;;;;;;;;;;27.04;39.46;94553.81;4993034;28;9868;-56
2023/04/10 04:21:14;;;;;;;;;;;;;;;27.07;39.23;94565.84;5012033;28;9034;-56
2023/04/10 04:23:44;;;;;;;;;;;;;;;27.05;39.40;94557.34;5001829;28;8257;-56
2023/04/10 04:26:23;;;;;;;;;;;;;;;27.06;39.78;94562.34;4997158;28;7046;-56
2023/04/10 04:28:50;;;;;;;;;;;;;;;27.05;39.42;94557.34;4995162;28;9022;-56
2023/04/10 04:31:16;;;;;;;;;;;;;;;27.06;39.40;94561.59;4996345;28;9048;-56
2023/04/10 04:33:44;;;;;;;;;;;;;;;27.04;39.56;94564.88;4997697;28;7082;-56
2023/04/10 04:36:12;;;;;;;;;;;;;;;27.05;39.39;94560.84;4987549;28;7030;-56
2023/04/10 04:38:39;;;;;;;;;;;;;;;27.05;39.62;94562.88;4994134;28;7183;-56
2023/04/10 04:41:14;;;;;;;;;;;;;;;27.04;39.66;94555.84;4983392;28;7540;-56
2023/04/10 04:43:41;;;;;;;;;;;;;;;27.04;39.43;94558.59;4994196;28;6985;-56
2023/04/10 04:46:07;;;;;;;;;;;;;;;27.04;39.49;94553.06;4981321;28;9065;-56
2023/04/10 04:48:38;;;;;;;;;;;;;;;27.01;39.64;94562.41;4991842;28;7210;-56
2023/04/10 04:51:07;;;;;;;;;;;;;;;26.95;39.72;94564.47;4980351;28;7624;-55
2023/04/10 04:54:18;;;;;;;;;;;;;;;26.98;39.74;94566.19;4987223;28;9065;-56
2023/04/10 04:56:44;;;;;;;;;;;;;;;26.99;39.84;94564.94;4985820;28;7475;-56
2023/04/10 04:59:10;;;;;;;;;;;;;;;26.98;39.79;94572.47;4983881;28;6968;-56
2023/04/10 05:01:36;;;;;;;;;;;;;;;27.01;39.57;94571.44;4988274;28;7103;-56
2023/04/10 05:04:01;;;;;;;;;;;;;;;27.03;39.95;94574.44;4987794;28;7038;-56
2023/04/10 05:06:31;;;;;;;;;;;;;;;27.00;39.62;94575.44;4979423;28;8685;-56
2023/04/10 05:08:59;;;;;;;;;;;;;;;27.00;39.80;94575.44;4987761;28;9137;-56
2023/04/10 05:11:30;;;;;;;;;;;;;;;27.04;39.26;94569.63;4985094;28;8997;-56
2023/04/10 05:13:56;;;;;;;;;;;;;;;27.02;39.59;94567.41;4981733;28;7531;-56
2023/04/10 05:16:24;;;;;;;;;;;;;;;27.04;39.83;94573.16;4981977;28;7602;-56
2023/04/10 05:18:50;;;;;;;;;;;;;;;27.05;39.70;94577.44;4997075;28;9436;-56
2023/04/10 05:21:16;;;;;;;;;;;;;;;27.05;39.57;94571.16;5002322;28;8754;-56
2023/04/10 05:23:44;;;;;;;;;;;;;;;27.04;39.98;94569.63;4987154;28;8606;-56
2023/04/10 05:26:10;;;;;;;;;;;;;;;27.05;39.65;94573.91;4991016;28;9043;-56
2023/04/10 05:28:37;;;;;;;;;;;;;;;27.05;39.83;94574.66;4987006;28;7191;-56
2023/04/10 05:31:03;;;;;;;;;;;;;;;27.09;40.11;94572.38;4988290;28;7219;-56
2023/04/10 05:33:31;;;;;;;;;;;;;;;27.10;39.72;94573.84;4990972;28;7338;-56
2023/04/10 05:35:57;;;;;;;;;;;;;;;27.08;39.47;94570.13;4995466;28;9400;-56
2023/04/10 05:38:25;;;;;;;;;;;;;;;27.07;39.53;94566.59;4991817;28;9835;-56
2023/04/10 05:41:07;;;;;;;;;;;;;;;27.05;39.79;94577.44;4985521;28;9149;-56
2023/04/10 05:43:33;;;;;;;;;;;;;;;27.06;39.27;94576.16;5003840;28;7114;-56
2023/04/10 05:46:06;;;;;;;;;;;;;;;27.05;39.58;94563.63;4986292;28;8049;-56
2023/04/10 05:48:34;;;;;;;;;;;;;;;27.06;40.08;94573.38;4986605;28;8982;-56
2023/04/10 05:51:38;;;;;;;;;;;;;;;27.08;39.60;94581.16;5016380;28;7308;-56
2023/04/10 05:54:04;;;;;;;;;;;;;;;27.09;39.56;94583.41;4986697;28;7235;-56
2023/04/10 05:56:32;;;;;;;;;;;;;;;27.12;39.79;94590.63;5000648;28;6867;-56
2023/04/10 05:59:00;;;;;;;;;;;;;;;27.14;39.25;94574.34;4989035;28;7277;-56
2023/04/10 06:01:27;;;;;;;;;;;;;;;27.16;39.20;94585.59;4980652;28;6876;-56
2023/04/10 06:03:53;;;;;;;;;;;;;;;27.18;39.42;94583.06;4984267;28;9204;-56
2023/04/10 06:06:23;;;;;;;;;;;;;;;27.20;39.13;94594.34;4988186;28;7185;-56
2023/04/10 06:08:49;;;;;;;;;;;;;;;27.17;39.56;94587.09;4990334;28;7019;-56
2023/04/10 06:11:17;;;;;;;;;;;;;;;27.18;39.32;94585.84;4986853;28;9032;-56
2023/04/10 06:13:45;;;;;;;;;;;;;;;27.16;39.48;94577.31;4980777;28;7495;-56
2023/04/10 06:16:14;;;;;;;;;;;;;;;27.19;40.24;94581.03;4986243;28;9100;-56
2023/04/10 06:18:53;;;;;;;;;;;;;;;27.22;39.26;94589.06;5003855;28;9127;-56
2023/04/10 06:21:28;;;;;;;;;;;;;;;27.22;39.63;94591.06;4997169;28;7275;-56
2023/04/10 06:24:05;;;;;;;;;;;;;;;27.19;39.83;94587.31;5019054;28;7082;-56
2023/04/10 06:27:03;;;;;;;;;;;;;;;27.18;39.63;94590.59;4985784;28;7163;-55
2023/04/10 06:29:59;;;;;;;;;;;;;;;27.19;39.77;94581.78;4985612;28;7600;-55
2023/04/10 06:32:55;;;;;;;;;;;;;;;27.20;39.73;94583.31;4915240;29;7459;-55
2023/04/10 06:35:26;;;;;;;;;;;;;;;27.17;39.36;94578.81;4914699;29;7648;-55
2023/04/10 06:37:55;;;;;;;;;;;;;;;27.09;39.80;94572.38;4914669;29;8652;-56
2023/04/10 06:40:33;;;;;;;;;;;;;;;27.09;40.38;94582.66;4926319;29;9023;-56
2023/04/10 06:43:10;;;;;;;;;;;;;;;27.10;39.66;94587.66;4932025;29;9150;-55
2023/04/10 06:45:56;;;;;;;;;;;;;;;27.12;39.61;94582.34;4931567;29;7355;-56
2023/04/10 06:48:22;;;;;;;;;;;;;;;27.06;34.21;94578.91;4912001;29;9000;-55
2023/04/10 06:51:21;;;;;;;;;;;;;;;26.86;31.84;94584.88;4925837;29;7603;-55
2023/04/10 06:53:50;;;;;;;;;;;;;;;26.76;32.24;94587.19;4892876;29;9374;-55
2023/04/10 06:56:25;;;;;;;;;;;;;;;26.70;30.60;94580.19;4891938;29;8918;-55
2023/04/10 06:58:58;;;;;;;;;;;;;;;26.70;30.96;94580.94;4892791;29;8913;-56
2023/04/10 07:02:03;;;;;;;;;;;;;;;26.72;30.70;94585.94;4893380;29;7105;-56
2023/04/10 07:04:39;;;;;;;;;;;;;;;26.74;31.43;94591.72;4847630;29;9102;-56
2023/04/10 07:07:20;;;;;;;;;;;;;;;26.74;31.91;94581.44;4838813;29;7059;-56
2023/04/10 07:10:00;;;;;;;;;;;;;;;26.79;32.15;94577.16;4899840;29;9295;-55
2023/04/10 07:12:34;;;;;;;;;;;;;;;26.82;32.61;94574.09;4890716;29;8018;-56
2023/04/10 07:15:11;;;;;;;;;;;;;;;26.84;33.17;94576.34;4883745;29;7035;-56
2023/04/10 07:17:37;;;;;;;;;;;;;;;26.87;33.48;94567.03;4899954;29;7257;-56
2023/04/10 07:20:04;;;;;;;;;;;;;;;26.90;33.18;94574.31;4901428;29;7810;-55
2023/04/10 07:22:39;;;;;;;;;;;;;;;26.88;33.52;94566.50;4914307;29;7254;-56
2023/04/10 07:25:15;;;;;;;;;;;;;;;26.94;33.78;94572.00;4905459;29;7435;-56
2023/04/10 07:27:41;;;;;;;;;;;;;;;26.92;33.35;94574.53;4900472;29;9350;-56
2023/04/10 07:30:17;;;;;;;;;;;;;;;26.95;33.65;94570.72;4896857;29;7252;-56
2023/04/10 07:33:16;;;;;;;;;;;;;;;26.95;33.72;94573.47;4908155;29;7254;-56
2023/04/10 07:36:05;;;;;;;;;;;;;;;26.96;33.13;94566.72;4892082;29;9439;-56
2023/04/10 07:38:36;;;;;;;;;;;;;;;26.93;33.26;94570.50;4926761;28;9020;-56
2023/04/10 07:41:04;;;;;;;;;;;;;;;26.92;34.27;94569.72;4965925;28;9153;-55
2023/04/10 07:43:32;;;;;;;;;;;;;;;26.96;33.73;94577.75;4971490;28;8980;-55
2023/04/10 07:45:58;;;;;;;;;;;;;;;27.00;34.70;94575.44;4953587;28;7256;-55
2023/04/10 07:48:33;;;;;;;;;;;;;;;26.99;34.51;94573.94;4962716;28;6975;-56
2023/04/10 07:51:31;;;;;;;;;;;;;;;26.98;34.91;94577.22;4964986;28;9017;-56
2023/04/10 07:54:02;;;;;;;;;;;;;;;26.96;35.27;94586.03;4970371;28;9155;-56
2023/04/10 07:56:35;;;;;;;;;;;;;;;26.96;34.92;94582.50;4971450;28;7353;-56
2023/04/10 07:59:04;;;;;;;;;;;;;;;26.99;35.35;94584.25;4948095;28;9389;-56
2023/04/10 08:01:41;;;;;;;;;;;;;;;26.99;34.60;94579.47;4965069;28;6860;-56
2023/04/10 08:04:10;;;;;;;;;;;;;;;26.97;35.44;94586.78;4966460;28;8338;-56
2023/04/10 08:06:46;;;;;;;;;;;;;;;27.00;35.70;94592.00;4958303;28;8956;-56
2023/04/10 08:09:12;;;;;;;;;;;;;;;27.00;36.36;94591.25;4965486;28;7464;-56
2023/04/10 08:11:43;;;;;;;;;;;;;;;26.97;35.86;94595.06;4977302;28;9876;-56
2023/04/10 08:14:28;;;;;;;;;;;;;;;26.92;35.89;94597.34;4994946;28;7039;-56
2023/04/10 08:17:03;;;;;;;;;;;;;;;26.94;36.13;94596.84;5001875;28;7351;-56
2023/04/10 08:19:30;;;;;;;;;;;;;;;26.95;36.87;94594.84;4992153;28;6952;-56
2023/04/10 08:22:27;;;;;;;;;;;;;;;27.00;36.29;94600.28;4991912;28;8978;-56
2023/04/10 08:25:28;;;;;;;;;;;;;;;27.01;36.32;94595.53;4991309;28;7300;-56
2023/04/10 08:28:11;;;;;;;;;;;;;;;27.01;36.13;94604.56;4990846;28;7054;-56
2023/04/10 08:31:11;;;;;;;;;;;;;;;27.01;35.78;94601.06;4990781;28;8264;-56
2023/04/10 08:34:32;;;;;;;;;;;;;;;27.02;36.01;94599.78;4926329;28;9854;-56
2023/04/10 08:37:27;;;;;;;;;;;;;;;27.03;35.76;94601.28;4854546;29;7349;-56
2023/04/10 08:40:05;;;;;;;;;;;;;;;27.03;36.07;94593.75;4857764;29;7014;-56
2023/04/10 08:42:50;;;;;;;;;;;;;;;27.03;35.68;94593.75;4876916;29;7498;-56
2023/04/10 08:45:17;;;;;;;;;;;;;;;27.03;35.26;94588.25;4876522;29;8783;-56
2023/04/10 08:47:57;;;;;;;;;;;;;;;27.04;36.20;94586.97;4882252;29;9135;-56
2023/04/10 08:50:24;;;;;;;;;;;;;;;27.04;35.70;94594.47;4870915;29;7108;-56
2023/04/10 08:53:12;;;;;;;;;;;;;;;27.04;36.08;94589.72;4865235;29;7266;-56
2023/04/10 08:55:40;;;;;;;;;;;;;;;27.05;36.28;94587.72;4874937;29;7531;-56
2023/04/10 08:58:15;;;;;;;;;;;;;;;27.04;36.37;94584.19;4873784;29;9019;-56
2023/04/10 09:00:41;;;;;;;;;;;;;;;27.05;36.74;94594.00;4875898;29;9158;-56
2023/04/10 09:03:33;;;;;;;;;;;;;;;27.06;36.81;94589.94;4864126;29;7070;-56
2023/04/10 09:06:09;;;;;;;;;;;;;;;27.06;37.05;94589.94;4843016;29;7311;-56
2023/04/10 09:09:22;;;;;;;;;;;;;;;27.08;37.11;94594.97;4858591;29;9502;-56
2023/04/10 09:12:07;;;;;;;;;;;;;;;27.08;37.29;94592.22;4915511;29;7349;-56
2023/04/10 09:14:44;;;;;;;;;;;;;;;27.10;37.59;94593.16;4942064;28;8794;-56
2023/04/10 09:17:23;;;;;;;;;;;;;;;27.08;37.81;94594.97;4916618;29;8967;-55
2023/04/10 09:20:00;;;;;;;;;;;;;;;27.08;37.15;94579.13;4915459;29;7497;-55
2023/04/10 09:22:31;;;;;;;;;;;;;;;27.13;38.05;94586.63;4939946;28;7734;-56
2023/04/10 09:25:29;;;;;;;;;;;;;;;27.11;37.91;94591.91;4945669;28;9315;-56
2023/04/10 09:28:10;;;;;;;;;;;;;;;27.11;37.63;94589.16;4922968;29;7028;-56
2023/04/10 09:30:48;;;;;;;;;;;;;;;27.14;37.93;94588.13;4914115;29;7236;-56
2023/04/10 09:33:23;;;;;;;;;;;;;;;27.11;38.31;94586.41;4939742;28;7053;-56
2023/04/10 09:35:50;;;;;;;;;;;;;;;27.12;38.63;94582.34;4938726;28;6953;-56
2023/04/10 09:38:28;;;;;;;;;;;;;;;27.15;38.44;94581.34;4912965;29;8464;-56
2023/04/10 09:41:29;;;;;;;;;;;;;;;27.17;38.54;94581.56;4942642;28;7441;-55
2023/04/10 09:44:18;;;;;;;;;;;;;;;27.14;38.57;94577.09;4918113;29;9134;-56
2023/04/10 09:46:45;;;;;;;;;;;;;;;27.15;38.81;94581.34;4940733;28;8480;-56
2023/04/10 09:49:15;;;;;;;;;;;;;;;27.18;38.97;94585.09;4999121;28;7268;-56
2023/04/10 09:51:58;;;;;;;;;;;;;;;27.19;38.47;94590.06;4987100;28;7204;-56
2023/04/10 09:54:51;;;;;;;;;;;;;;;27.19;38.71;94587.31;4983114;28;7347;-56
2023/04/10 09:57:20;;;;;;;;;;;;;;;27.17;38.59;94584.31;4985957;28;7133;-56
2023/04/10 10:00:05;;;;;;;;;;;;;;;27.18;38.57;94568.50;5013194;28;9159;-56
2023/04/10 10:02:43;;;;;;;;;;;;;;;27.18;38.60;94563.75;4986482;28;9114;-56
2023/04/10 10:05:26;;;;;;;;;;;;;;;27.22;38.75;94564.19;4999453;28;7137;-56
2023/04/10 10:08:03;;;;;;;;;;;;;;;27.20;39.11;94568.75;4989705;28;8721;-56
2023/04/10 10:10:39;;;;;;;;;;;;;;;27.23;38.78;94567.72;4986920;28;7053;-56
2023/04/10 10:13:22;;;;;;;;;;;;;;;27.23;39.05;94562.19;5010500;28;9872;-56
2023/04/10 10:16:41;;;;;;;;;;;;;;;27.26;38.94;94556.38;4984959;28;7103;-56
2023/04/10 10:19:41;;;;;;;;;;;;;;;27.26;39.27;94547.34;5009655;28;7489;-56
2023/04/10 10:22:24;;;;;;;;;;;;;;;27.24;39.15;94545.09;4986379;28;7088;-56
2023/04/10 10:24:58;;;;;;;;;;;;;;;27.26;39.04;94537.03;5003616;28;6965;-55
2023/04/10 10:27:35;;;;;;;;;;;;;;;27.26;39.15;94539.06;4984375;28;8850;-56
2023/04/10 10:30:12;;;;;;;;;;;;;;;27.24;39.38;94534.06;5000946;28;6992;-56
2023/04/10 10:33:11;;;;;;;;;;;;;;;27.26;39.35;94528.75;4980949;28;9025;-55
2023/04/10 10:36:07;;;;;;;;;;;;;;;27.30;38.78;94525.69;4991316;28;7349;-56
2023/04/10 10:39:08;;;;;;;;;;;;;;;27.26;38.95;94526.00;4986859;28;9206;-56
2023/04/10 10:41:58;;;;;;;;;;;;;;;27.29;39.04;94536.03;4990425;28;8186;-56
2023/04/10 10:45:02;;;;;;;;;;;;;;;27.30;39.29;94531.97;4979303;28;7114;-56
2023/04/10 10:48:12;;;;;;;;;;;;;;;27.33;39.26;94530.19;4985773;28;7206;-56
2023/04/10 10:50:59;;;;;;;;;;;;;;;27.32;38.92;94523.91;4995091;28;9078;-55
2023/04/10 10:53:44;;;;;;;;;;;;;;;27.34;38.70;94515.84;4981470;28;8947;-55
2023/04/10 10:56:19;;;;;;;;;;;;;;;27.33;38.89;94506.09;4996339;28;7542;-55
2023/04/10 10:59:02;;;;;;;;;;;;;;;27.34;38.57;94498.56;4994081;28;7231;-56
2023/04/10 11:02:10;;;;;;;;;;;;;;;27.36;38.96;94496.06;4990109;28;7507;-56
2023/04/10 11:04:54;;;;;;;;;;;;;;;27.34;38.75;94491.00;4998866;28;7729;-56
2023/04/10 11:07:23;;;;;;;;;;;;;;;27.37;38.60;94487.22;5006458;28;7041;-56
2023/04/10 11:10:07;;;;;;;;;;;;;;;27.41;38.30;94492.47;4989306;28;8643;-56
2023/04/10 11:13:16;;;;;;;;;;;;;;;27.45;37.91;94496.41;4993345;28;7318;-56
2023/04/10 11:16:13;;;;;;;;;;;;;;;27.42;37.15;94488.44;4939643;28;7600;-55
2023/04/10 11:19:20;;;;;;;;;;;;;;;27.43;36.71;94496.19;4917731;29;7695;-55
2023/04/10 11:22:14;;;;;;;;;;;;;;;27.44;36.52;94494.19;4899931;29;7057;-55
2023/04/10 11:24:56;;;;;;;;;;;;;;;27.42;36.78;94491.97;4922395;29;7258;-55
2023/04/10 11:28:17;;;;;;;;;;;;;;;27.45;36.71;94492.91;4891760;29;7397;-55
2023/04/10 11:30:45;;;;;;;;;;;;;;;27.45;36.69;94492.91;4901938;29;7390;-55
2023/04/10 11:33:17;;;;;;;;;;;;;;;27.45;36.63;94488.13;4919969;29;8841;-55
2023/04/10 11:36:02;;;;;;;;;;;;;;;27.46;36.87;94495.16;4915161;29;8741;-55
2023/04/10 11:38:33;;;;;;;;;;;;;;;27.47;36.82;94487.63;4894070;29;7449;-55
2023/04/10 11:41:36;;;;;;;;;;;;;;;27.48;36.97;94491.88;4916829;29;7214;-55
2023/04/10 11:44:38;;;;;;;;;;;;;;;27.51;37.15;94488.81;4919034;29;8999;-55
2023/04/10 11:47:07;;;;;;;;;;;;;;;27.51;36.69;94485.31;4856937;29;9114;-55
2023/04/10 11:49:54;;;;;;;;;;;;;;;27.52;36.87;94482.03;4859133;29;7466;-55
2023/04/10 11:52:31;;;;;;;;;;;;;;;27.53;36.52;94480.75;4880502;29;7227;-55
2023/04/10 11:54:58;;;;;;;;;;;;;;;27.52;36.07;94484.03;4894056;29;7248;-55
2023/04/10 11:57:36;;;;;;;;;;;;;;;27.53;36.37;94482.78;4906837;29;7385;-55
2023/04/10 12:00:03;;;;;;;;;;;;;;;27.53;35.67;94477.97;4896767;29;8765;-55
2023/04/10 12:02:50;;;;;;;;;;;;;;;27.56;35.15;94476.94;4887734;29;9159;-55
2023/04/10 12:05:16;;;;;;;;;;;;;;;27.57;35.37;94478.44;4898142;29;7300;-55
2023/04/10 12:07:53;;;;;;;;;;;;;;;27.59;35.17;94478.69;4894069;29;7326;-54
2023/04/10 12:10:20;;;;;;;;;;;;;;;27.60;35.78;94474.63;4890655;29;9216;-55
2023/04/10 12:12:47;;;;;;;;;;;;;;;27.61;34.88;94473.38;4896994;29;6984;-55
2023/04/10 12:15:28;;;;;;;;;;;;;;;27.61;35.00;94470.63;4893785;29;7261;-55
2023/04/10 12:17:59;;;;;;;;;;;;;;;27.63;34.37;94462.53;4891538;29;7383;-55
2023/04/10 12:20:37;;;;;;;;;;;;;;;27.60;34.70;94460.81;4908314;29;7009;-55
2023/04/10 12:23:05;;;;;;;;;;;;;;;27.62;34.41;94466.56;4926164;28;7060;-55
2023/04/10 12:25:32;;;;;;;;;;;;;;;27.64;34.20;94460.53;4986990;28;7090;-55
2023/04/10 12:27:59;;;;;;;;;;;;;;;27.65;34.34;94462.00;5001427;28;7238;-55
2023/04/10 12:30:26;;;;;;;;;;;;;;;27.62;34.06;94452.75;4985112;28;7233;-55
2023/04/10 12:32:53;;;;;;;;;;;;;;;27.64;33.64;94455.72;4996651;28;6941;-55
2023/04/10 12:35:19;;;;;;;;;;;;;;;27.69;33.16;94450.69;4984505;28;9101;-55
2023/04/10 12:37:53;;;;;;;;;;;;;;;27.69;33.40;94451.41;4984663;28;9152;-55
2023/04/10 12:40:26;;;;;;;;;;;;;;;27.69;33.52;94450.69;5002895;28;9571;-55
2023/04/10 12:42:56;;;;;;;;;;;;;;;27.68;32.97;94449.16;4982959;28;9355;-56
2023/04/10 12:45:44;;;;;;;;;;;;;;;27.73;33.41;94456.66;4993488;28;9206;-56
2023/04/10 12:48:32;;;;;;;;;;;;;;;27.71;31.54;94443.34;4989980;28;7492;-56
2023/04/10 12:51:05;;;;;;;;;;;;;;;27.71;31.54;94445.38;4987522;28;6951;-56
2023/04/10 12:53:42;;;;;;;;;;;;;;;27.68;32.05;94443.66;4983564;28;6999;-56
2023/04/10 12:56:19;;;;;;;;;;;;;;;27.69;31.90;94445.16;4991929;28;7134;-56
2023/04/10 12:58:46;;;;;;;;;;;;;;;27.68;31.20;94430.59;5003051;28;7147;-56
2023/04/10 13:01:42;;;;;;;;;;;;;;;27.70;31.91;94435.56;4992300;28;7922;-56
2023/04/10 13:04:37;;;;;;;;;;;;;;;27.71;31.23;94431.56;4997612;28;7273;-56
2023/04/10 13:07:06;;;;;;;;;;;;;;;27.71;31.16;94415.69;4986052;28;7051;-56
2023/04/10 13:09:59;;;;;;;;;;;;;;;27.73;31.18;94420.72;4977752;28;9440;-56
2023/04/10 13:12:37;;;;;;;;;;;;;;;27.72;31.07;94421.97;4978789;28;7042;-56
2023/04/10 13:15:06;;;;;;;;;;;;;;;27.71;31.41;94417.72;4980012;28;9437;-56
2023/04/10 13:17:42;;;;;;;;;;;;;;;27.70;31.61;94424.53;4987752;28;7933;-55
2023/04/10 13:20:29;;;;;;;;;;;;;;;27.70;31.78;94419.00;4994001;28;8740;-55
2023/04/10 13:23:45;;;;;;;;;;;;;;;27.71;31.12;94424.00;4978904;28;9039;-55
2023/04/10 13:26:25;;;;;;;;;;;;;;;27.73;31.81;94417.97;4942477;28;7262;-55
2023/04/10 13:28:53;;;;;;;;;;;;;;;27.76;31.62;94416.88;4948742;28;7035;-55
2023/04/10 13:31:54;;;;;;;;;;;;;;;27.75;31.82;94415.41;4931590;28;7230;-55
2023/04/10 13:34:34;;;;;;;;;;;;;;;27.77;32.10;94415.63;4951579;28;7046;-55
2023/04/10 13:37:26;;;;;;;;;;;;;;;27.76;31.82;94411.34;4951094;28;9325;-56
2023/04/10 13:40:00;;;;;;;;;;;;;;;27.77;32.10;94407.34;4949937;28;9029;-55
2023/04/10 13:42:28;;;;;;;;;;;;;;;27.76;31.18;94401.06;4888426;29;7247;-55
2023/04/10 13:44:54;;;;;;;;;;;;;;;27.79;31.92;94402.03;4892370;29;9486;-56
2023/04/10 13:47:22;;;;;;;;;;;;;;;27.80;31.49;94407.03;4889729;29;9326;-56
2023/04/10 13:50:23;;;;;;;;;;;;;;;27.80;31.42;94395.97;4897153;29;9025;-56
2023/04/10 13:52:49;;;;;;;;;;;;;;;27.80;31.54;94390.44;4903785;29;7411;-56
2023/04/10 13:55:16;;;;;;;;;;;;;;;27.81;30.41;94397.47;4899435;29;9397;-56
2023/04/10 13:57:47;;;;;;;;;;;;;;;27.82;31.23;94398.94;4880928;29;8008;-56
2023/04/10 14:00:13;;;;;;;;;;;;;;;27.81;29.88;94391.19;4890391;29;7090;-56